Time;durP1;ratioP1;P1;durP2;ratioP2;P2;SDS_P1;SDS_P2;PMS_P1;PMS_P2;Temp;Humidity;BMP_temperature;BMP_pressure;BME280_temperature;BME280_humidity;BME280_pressure;Samples;Min_cycle;Max_cycle;Signal;HPM_P1;HPM_P2
2022/09/04 00:02:19;;;;;;;3.50;3.30;;;19.70;99.90;;;;;;5014274;28;20453;-81
2022/09/04 00:05:15;;;;;;;3.50;3.20;;;19.60;99.90;;;;;;5013823;28;20461;-80
2022/09/04 00:08:02;;;;;;;3.20;3.00;;;19.70;99.90;;;;;;5028206;28;20490;-81
2022/09/04 00:10:39;;;;;;;3.83;3.53;;;19.70;99.90;;;;;;5011849;28;20450;-83
2022/09/04 00:13:11;;;;;;;4.83;3.60;;;19.70;99.90;;;;;;5014947;28;20453;-82
2022/09/04 00:16:03;;;;;;;4.10;3.80;;;19.70;99.90;;;;;;5014077;28;21136;-84
2022/09/04 00:18:51;;;;;;;3.80;3.33;;;19.50;99.90;;;;;;5014022;28;20478;-84
2022/09/04 00:21:59;;;;;;;3.57;3.37;;;19.60;99.90;;;;;;5014546;28;20464;-82
2022/09/04 00:24:47;;;;;;;3.97;3.57;;;19.60;99.90;;;;;;5019345;28;20516;-82
2022/09/04 00:27:25;;;;;;;3.80;3.50;;;19.50;99.90;;;;;;5014902;28;20442;-84
2022/09/04 00:30:13;;;;;;;4.13;3.73;;;19.70;99.90;;;;;;5014413;28;20454;-83
2022/09/04 00:32:44;;;;;;;3.57;3.33;;;19.60;99.90;;;;;;5018937;28;20457;-82
2022/09/04 00:35:30;;;;;;;4.20;3.90;;;19.40;99.90;;;;;;5017723;28;20448;-82
2022/09/04 00:38:13;;;;;;;4.30;4.00;;;19.30;99.90;;;;;;5018418;28;21240;-82
2022/09/04 00:41:02;;;;;;;3.93;3.63;;;19.20;99.90;;;;;;5018582;28;20454;-83
2022/09/04 00:43:48;;;;;;;4.10;3.80;;;19.40;99.90;;;;;;5016987;28;20554;-82
2022/09/04 00:46:30;;;;;;;3.40;3.20;;;19.40;99.90;;;;;;5015611;28;20450;-81
2022/09/04 00:49:15;;;;;;;4.10;3.80;;;19.40;99.90;;;;;;5019338;28;20518;-83
2022/09/04 00:51:59;;;;;;;4.30;4.00;;;19.40;99.90;;;;;;5026348;28;20453;-83
2022/09/04 00:54:58;;;;;;;4.17;3.87;;;19.40;99.90;;;;;;5026043;28;20450;-83
2022/09/04 00:57:58;;;;;;;4.27;4.00;;;19.30;99.90;;;;;;5025456;28;20500;-81
2022/09/04 01:00:26;;;;;;;5.00;4.17;;;19.20;99.90;;;;;;5042839;28;20492;-82
2022/09/04 01:02:59;;;;;;;4.03;3.73;;;19.30;99.90;;;;;;5027361;28;20454;-82
2022/09/04 01:06:01;;;;;;;4.70;4.30;;;19.30;99.90;;;;;;5026817;28;20454;-82
2022/09/04 01:09:01;;;;;;;4.10;3.70;;;19.20;99.90;;;;;;5019617;28;20550;-82
2022/09/04 01:12:01;;;;;;;5.37;4.67;;;19.10;99.90;;;;;;5021511;28;20466;-81
2022/09/04 01:15:13;;;;;;;4.73;4.13;;;18.90;99.90;;;;;;5031203;28;20458;-82
2022/09/04 01:18:01;;;;;;;4.40;4.00;;;19.00;99.90;;;;;;5024905;28;20881;-83
2022/09/04 01:20:51;;;;;;;5.07;4.67;;;18.90;99.90;;;;;;5021123;28;20505;-83
2022/09/04 01:23:30;;;;;;;5.20;4.77;;;19.00;99.90;;;;;;5022209;28;20519;-82
2022/09/04 01:26:07;;;;;;;4.93;4.53;;;19.30;99.90;;;;;;5024152;28;20441;-83
2022/09/04 01:29:09;;;;;;;5.27;4.80;;;19.20;99.90;;;;;;5021077;28;20468;-81
2022/09/04 01:32:11;;;;;;;4.63;4.23;;;19.10;99.90;;;;;;5023455;28;20446;-82
2022/09/04 01:34:59;;;;;;;5.40;4.90;;;19.20;99.90;;;;;;5024505;28;20449;-83
2022/09/04 01:37:50;;;;;;;4.70;4.30;;;19.30;99.90;;;;;;5023278;28;20545;-82
2022/09/04 01:40:23;;;;;;;4.67;4.27;;;19.10;99.90;;;;;;5039277;28;20458;-82
2022/09/04 01:43:19;;;;;;;4.53;4.17;;;19.00;99.90;;;;;;5030318;28;20449;-81
2022/09/04 01:45:47;;;;;;;5.87;5.30;;;19.00;99.90;;;;;;5035734;28;21185;-80
2022/09/04 01:48:20;;;;;;;4.47;4.10;;;19.20;99.90;;;;;;5032001;28;20485;-81
2022/09/04 01:50:57;;;;;;;5.60;5.10;;;19.10;99.90;;;;;;5024023;28;20429;-83
2022/09/04 01:53:26;;;;;;;5.10;4.70;;;19.10;99.90;;;;;;5029688;28;20445;-83
2022/09/04 01:56:23;;;;;;;5.27;4.77;;;19.30;99.90;;;;;;5020075;28;20457;-83
2022/09/04 01:59:17;;;;;;;4.97;4.47;;;19.10;99.90;;;;;;5020649;28;20484;-84
2022/09/04 02:01:55;;;;;;;5.13;4.73;;;19.10;99.90;;;;;;5014479;28;20454;-82
2022/09/04 02:04:26;;;;;;;6.20;4.90;;;19.10;99.90;;;;;;5014337;28;20460;-81
2022/09/04 02:07:13;;;;;;;5.77;5.27;;;19.00;99.90;;;;;;5009893;28;20449;-83
2022/09/04 02:10:06;;;;;;;5.13;4.73;;;19.10;99.90;;;;;;5017000;28;20461;-82
2022/09/04 02:13:06;;;;;;;5.70;5.20;;;19.00;99.90;;;;;;5018232;28;20466;-81
2022/09/04 02:15:42;;;;;;;6.33;5.83;;;19.00;99.90;;;;;;5017785;28;20450;-83
2022/09/04 02:18:26;;;;;;;5.60;5.10;;;18.90;99.90;;;;;;5018497;28;20552;-82
2022/09/04 02:21:06;;;;;;;5.87;5.37;;;18.70;99.90;;;;;;5018626;28;20584;-83
2022/09/04 02:24:08;;;;;;;6.27;5.77;;;18.80;99.90;;;;;;5031908;28;20480;-81
2022/09/04 02:26:50;;;;;;;5.57;5.10;;;18.90;99.90;;;;;;5012479;28;20880;-82
2022/09/04 02:29:47;;;;;;;6.33;5.77;;;19.00;99.90;;;;;;5013616;28;21740;-82
2022/09/04 02:32:43;;;;;;;7.53;6.90;;;19.00;99.90;;;;;;5014481;28;20946;-83
2022/09/04 02:35:31;;;;;;;6.00;5.40;;;18.90;99.90;;;;;;5014269;28;20462;-83
2022/09/04 02:38:19;;;;;;;5.87;5.37;;;18.60;99.90;;;;;;5012757;28;20548;-83
2022/09/04 02:41:13;;;;;;;5.30;4.80;;;18.50;99.90;;;;;;5028467;28;20521;-83
2022/09/04 02:44:07;;;;;;;6.00;5.37;;;18.50;99.90;;;;;;5013181;28;20940;-81
2022/09/04 02:47:01;;;;;;;7.17;5.37;;;18.70;99.90;;;;;;5014743;28;20951;-83
2022/09/04 02:49:34;;;;;;;5.80;5.33;;;18.70;99.90;;;;;;5013984;28;20455;-83
2022/09/04 02:52:08;;;;;;;6.47;5.87;;;18.60;99.90;;;;;;5011999;28;20450;-81
2022/09/04 02:55:02;;;;;;;5.53;5.03;;;18.70;99.90;;;;;;5028259;28;20482;-84
2022/09/04 02:57:53;;;;;;;5.33;4.83;;;18.70;99.90;;;;;;5013380;28;20493;-81
2022/09/04 03:00:39;;;;;;;5.60;5.00;;;18.60;99.90;;;;;;5010953;28;20533;-82
2022/09/04 03:03:13;;;;;;;5.57;5.07;;;18.40;99.90;;;;;;5012052;28;20481;-84
2022/09/04 03:05:50;;;;;;;5.00;4.60;;;18.40;99.90;;;;;;5029137;28;20961;-84
2022/09/04 03:08:22;;;;;;;5.50;5.10;;;18.30;99.90;;;;;;5029808;28;20477;-82
2022/09/04 03:11:11;;;;;;;5.87;5.20;;;18.50;99.90;;;;;;5015608;28;20450;-83
2022/09/04 03:13:55;;;;;;;5.93;5.43;;;18.70;99.90;;;;;;5009936;28;20462;-81
2022/09/04 03:16:39;;;;;;;5.63;5.13;;;18.70;99.90;;;;;;5013443;28;20516;-84
2022/09/04 03:19:26;;;;;;;4.47;4.10;;;18.70;99.90;;;;;;5012861;28;20466;-82
2022/09/04 03:22:13;;;;;;;5.50;5.00;;;18.40;99.90;;;;;;5011109;28;20857;-82
2022/09/04 03:25:22;;;;;;;4.93;4.53;;;18.40;99.90;;;;;;5012201;28;20457;-83
2022/09/04 03:27:50;;;;;;;4.77;4.47;;;18.50;99.90;;;;;;5010841;28;20473;-83
2022/09/04 03:30:19;;;;;;;5.50;5.10;;;18.30;99.90;;;;;;5012789;28;20488;-82
2022/09/04 03:33:28;;;;;;;4.97;4.63;;;18.30;99.90;;;;;;5029884;28;20833;-82
2022/09/04 03:36:42;;;;;;;4.60;4.20;;;18.40;99.90;;;;;;5011281;28;20536;-83
2022/09/04 03:39:24;;;;;;;6.60;5.27;;;18.60;99.90;;;;;;4996090;28;20490;-83
2022/09/04 03:42:13;;;;;;;5.30;4.83;;;18.70;99.90;;;;;;5012375;28;20465;-83
2022/09/04 03:45:00;;;;;;;5.63;5.10;;;18.70;99.90;;;;;;5015652;28;20477;-82
2022/09/04 03:47:43;;;;;;;5.07;4.67;;;18.70;99.90;;;;;;5028505;28;21065;-82
2022/09/04 03:50:50;;;;;;;5.47;4.97;;;18.70;99.90;;;;;;5016043;28;20442;-81
2022/09/04 03:53:55;;;;;;;6.20;5.70;;;18.70;99.90;;;;;;5013901;28;20502;-82
2022/09/04 03:56:59;;;;;;;5.07;4.67;;;18.60;99.90;;;;;;5005401;28;20461;-82
2022/09/04 04:00:09;;;;;;;5.87;5.37;;;18.60;99.90;;;;;;5015498;28;20471;-81
2022/09/04 04:02:45;;;;;;;6.90;5.70;;;18.40;99.90;;;;;;5014625;28;20549;-82
2022/09/04 04:05:27;;;;;;;6.00;5.50;;;18.30;99.90;;;;;;5013149;28;20456;-84
2022/09/04 04:08:12;;;;;;;5.57;5.17;;;18.40;99.90;;;;;;5016563;28;21003;-81
2022/09/04 04:10:44;;;;;;;6.50;5.90;;;18.50;99.90;;;;;;5016460;28;20457;-83
2022/09/04 04:13:23;;;;;;;5.97;5.47;;;18.70;99.90;;;;;;5016998;28;20486;-83
2022/09/04 04:15:59;;;;;;;5.60;5.10;;;18.70;99.90;;;;;;5031634;28;20492;-81
2022/09/04 04:18:53;;;;;;;5.83;5.33;;;18.60;99.90;;;;;;5018906;28;20492;-83
2022/09/04 04:21:56;;;;;;;5.37;4.87;;;18.60;99.90;;;;;;5021714;28;20466;-82
2022/09/04 04:24:42;;;;;;;6.00;5.50;;;18.60;99.90;;;;;;5028140;28;20446;-81
2022/09/04 04:27:24;;;;;;;6.97;6.27;;;18.70;99.90;;;;;;5045187;28;20529;-80
2022/09/04 04:30:13;;;;;;;5.33;4.90;;;18.50;99.90;;;;;;5022795;28;20505;-83
2022/09/04 04:33:14;;;;;;;5.40;4.90;;;18.40;99.90;;;;;;5015121;28;20462;-83
2022/09/04 04:35:49;;;;;;;4.80;4.40;;;18.30;99.90;;;;;;5021812;28;20469;-84
2022/09/04 04:38:19;;;;;;;4.83;4.33;;;18.20;99.90;;;;;;5013685;28;22053;-81
2022/09/04 04:41:19;;;;;;;5.60;5.10;;;18.10;99.90;;;;;;5015642;28;20510;-81
2022/09/04 04:44:16;;;;;;;5.47;4.97;;;18.20;99.90;;;;;;5011138;28;20462;-82
2022/09/04 04:47:01;;;;;;;6.20;5.60;;;18.30;99.90;;;;;;5010274;28;20465;-82
2022/09/04 04:49:47;;;;;;;5.50;5.00;;;18.60;99.90;;;;;;5012977;28;20438;-83
2022/09/04 04:52:59;;;;;;;5.00;4.60;;;18.50;99.90;;;;;;5011619;28;20454;-83
2022/09/04 04:55:49;;;;;;;5.60;5.10;;;18.60;99.90;;;;;;4977718;28;20446;-82
2022/09/04 04:58:30;;;;;;;5.17;4.67;;;18.40;99.90;;;;;;5011002;28;20542;-81
2022/09/04 05:01:42;;;;;;;5.93;5.40;;;18.50;99.90;;;;;;5012434;28;20536;-82
2022/09/04 05:04:39;;;;;;;5.17;4.77;;;18.40;99.90;;;;;;5012574;28;20465;-82
2022/09/04 05:07:33;;;;;;;6.47;5.87;;;18.30;99.90;;;;;;5010788;28;20466;-82
2022/09/04 05:10:15;;;;;;;6.03;5.53;;;18.50;99.90;;;;;;5009937;28;20860;-83
2022/09/04 05:13:10;;;;;;;5.87;5.00;;;18.40;99.90;;;;;;5014090;28;20466;-84
2022/09/04 05:15:51;;;;;;;7.00;6.40;;;18.40;99.90;;;;;;5013480;28;20458;-83
2022/09/04 05:18:56;;;;;;;5.37;4.97;;;18.30;99.90;;;;;;5012652;28;20486;-83
2022/09/04 05:21:39;;;;;;;5.67;5.17;;;18.20;99.90;;;;;;5013961;28;20497;-85
2022/09/04 05:24:21;;;;;;;5.67;5.27;;;18.10;99.90;;;;;;5029514;28;20445;-83
2022/09/04 05:27:19;;;;;;;4.97;4.53;;;18.10;99.90;;;;;;5013399;28;20951;-81
2022/09/04 05:30:06;;;;;;;5.77;5.37;;;18.30;99.90;;;;;;5013115;28;20553;-83
2022/09/04 05:32:51;;;;;;;5.50;4.97;;;18.30;99.90;;;;;;5013141;28;20573;-82
2022/09/04 05:36:05;;;;;;;7.80;7.00;;;18.20;99.90;;;;;;5014901;28;20466;-85
2022/09/04 05:38:49;;;;;;;6.50;5.60;;;18.40;99.90;;;;;;4994110;28;20483;-83
2022/09/04 05:41:39;;;;;;;6.00;5.50;;;18.50;99.90;;;;;;5030791;28;20563;-81
2022/09/04 05:44:45;;;;;;;7.43;6.73;;;18.50;99.90;;;;;;5011590;28;20464;-80
2022/09/04 05:47:37;;;;;;;6.17;5.67;;;18.50;99.90;;;;;;5012563;28;20527;-81
2022/09/04 05:50:29;;;;;;;6.97;6.37;;;18.50;99.90;;;;;;5015230;28;20487;-83
2022/09/04 05:53:29;;;;;;;6.07;5.47;;;18.40;99.90;;;;;;5027433;28;20465;-81
2022/09/04 05:56:03;;;;;;;5.80;5.30;;;18.20;99.90;;;;;;5032631;28;20430;-82
2022/09/04 05:58:42;;;;;;;6.33;5.83;;;18.50;99.90;;;;;;5034263;28;20488;-82
2022/09/04 06:01:30;;;;;;;6.17;5.50;;;18.70;99.90;;;;;;5031618;28;20474;-81
2022/09/04 06:04:09;;;;;;;5.90;5.33;;;18.80;99.90;;;;;;5046534;28;20446;-83
2022/09/04 06:06:56;;;;;;;6.77;6.03;;;20.00;99.90;;;;;;5025406;28;20509;-83
2022/09/04 06:10:01;;;;;;;5.50;5.00;;;21.90;99.90;;;;;;5023429;28;20462;-82
2022/09/04 06:12:58;;;;;;;6.07;5.47;;;24.20;96.60;;;;;;5022369;28;20450;-84
2022/09/04 06:15:54;;;;;;;4.40;4.00;;;25.70;92.90;;;;;;5018530;28;20438;-82
2022/09/04 06:18:39;;;;;;;8.00;5.50;;;26.80;90.00;;;;;;5018682;28;20478;-82
2022/09/04 06:21:09;;;;;;;4.30;4.00;;;27.30;86.00;;;;;;5020585;28;20486;-83
2022/09/04 06:24:04;;;;;;;4.53;4.23;;;26.70;86.30;;;;;;5022474;28;20514;-82
2022/09/04 06:26:48;;;;;;;5.30;4.80;;;27.70;84.20;;;;;;5022188;28;20872;-82
2022/09/04 06:29:38;;;;;;;5.20;4.73;;;28.80;79.50;;;;;;5019513;28;20466;-81
2022/09/04 06:32:29;;;;;;;4.80;4.40;;;29.50;73.30;;;;;;5019978;28;20465;-83
2022/09/04 06:35:14;;;;;;;4.97;4.50;;;29.80;72.50;;;;;;5020166;28;20435;-83
2022/09/04 06:38:13;;;;;;;4.40;4.03;;;29.40;71.90;;;;;;5033261;28;20489;-82
2022/09/04 06:41:14;;;;;;;4.90;4.50;;;28.60;74.60;;;;;;5016771;28;20489;-83
2022/09/04 06:44:22;;;;;;;4.67;4.27;;;29.00;72.20;;;;;;5017529;28;20466;-84
2022/09/04 06:46:55;;;;;;;4.43;4.13;;;28.80;73.30;;;;;;5015679;28;20497;-83
2022/09/04 06:49:59;;;;;;;4.53;4.23;;;29.00;72.30;;;;;;5018713;28;20470;-82
2022/09/04 06:52:58;;;;;;;4.30;4.00;;;29.00;71.80;;;;;;5020623;28;20446;-83
2022/09/04 06:55:46;;;;;;;4.70;4.30;;;28.90;71.40;;;;;;5026404;28;21223;-83
2022/09/04 06:58:42;;;;;;;4.77;4.37;;;29.00;71.30;;;;;;5036490;28;20482;-81
2022/09/04 07:01:21;;;;;;;4.87;4.47;;;29.30;70.80;;;;;;5018250;28;20489;-84
2022/09/04 07:03:55;;;;;;;4.70;4.33;;;29.60;69.20;;;;;;5018515;28;20468;-82
2022/09/04 07:07:07;;;;;;;4.70;4.17;;;28.30;72.90;;;;;;5024997;28;20454;-82
2022/09/04 07:10:09;;;;;;;4.23;3.93;;;29.50;70.00;;;;;;5046226;28;20442;-83
2022/09/04 07:12:54;;;;;;;5.20;4.80;;;29.60;70.00;;;;;;5022435;28;20453;-82
2022/09/04 07:15:32;;;;;;;5.53;4.20;;;31.00;64.80;;;;;;5013232;28;20474;-81
2022/09/04 07:18:23;;;;;;;4.80;4.40;;;31.70;62.10;;;;;;5023142;28;20482;-82
2022/09/04 07:21:10;;;;;;;4.70;4.00;;;31.90;59.90;;;;;;5020376;28;20490;-84
2022/09/04 07:23:40;;;;;;;4.43;4.03;;;31.00;61.80;;;;;;5028787;28;20442;-84
2022/09/04 07:26:37;;;;;;;4.47;4.17;;;31.80;60.10;;;;;;5009637;28;20521;-83
2022/09/04 07:29:41;;;;;;;4.50;4.10;;;31.90;58.80;;;;;;5011573;28;20478;-84
2022/09/04 07:32:22;;;;;;;4.87;4.57;;;31.30;59.60;;;;;;5011736;28;20482;-84
2022/09/04 07:35:07;;;;;;;4.40;3.90;;;30.80;61.40;;;;;;5011278;28;20466;-83
2022/09/04 07:37:57;;;;;;;4.60;4.20;;;30.50;63.40;;;;;;5028535;28;20481;-84
2022/09/04 07:40:38;;;;;;;5.13;4.70;;;31.60;60.00;;;;;;5027366;28;20474;-83
2022/09/04 07:43:25;;;;;;;4.63;4.33;;;32.50;58.40;;;;;;5013926;28;20485;-85
2022/09/04 07:46:24;;;;;;;5.40;4.90;;;32.80;57.00;;;;;;5014316;28;20541;-81
2022/09/04 07:49:04;;;;;;;4.20;3.90;;;32.80;56.10;;;;;;4995873;28;21236;-84
2022/09/04 07:51:51;;;;;;;4.67;4.37;;;32.60;57.30;;;;;;5011607;28;20552;-81
2022/09/04 07:54:55;;;;;;;4.63;4.23;;;33.60;55.20;;;;;;5011055;28;20477;-84
2022/09/04 07:57:41;;;;;;;4.03;3.73;;;32.80;55.50;;;;;;5010174;28;20497;-82
2022/09/04 08:00:17;;;;;;;3.97;3.70;;;33.10;55.70;;;;;;5011298;28;20454;-82
2022/09/04 08:03:00;;;;;;;4.10;3.80;;;33.30;54.40;;;;;;5011477;28;20460;-83
2022/09/04 08:05:37;;;;;;;4.43;4.07;;;33.40;54.40;;;;;;5010154;28;20489;-83
2022/09/04 08:08:37;;;;;;;5.40;5.00;;;33.10;54.20;;;;;;5010892;28;20569;-81
2022/09/04 08:11:44;;;;;;;5.30;4.80;;;32.60;55.50;;;;;;5008701;28;20462;-82
2022/09/04 08:14:25;;;;;;;5.30;4.10;;;32.70;55.50;;;;;;5007006;28;20462;-82
2022/09/04 08:17:25;;;;;;;4.50;4.10;;;33.00;54.70;;;;;;5009436;28;20460;-83
2022/09/04 08:20:21;;;;;;;4.60;4.30;;;33.60;53.50;;;;;;5010239;28;20489;-84
2022/09/04 08:23:00;;;;;;;4.47;4.17;;;33.50;53.10;;;;;;5007897;28;20461;-82
2022/09/04 08:26:01;;;;;;;5.03;4.13;;;33.20;53.70;;;;;;5009746;28;20449;-83
2022/09/04 08:28:37;;;;;;;5.10;4.70;;;33.10;53.60;;;;;;5009732;28;20497;-82
2022/09/04 08:31:28;;;;;;;5.23;4.73;;;33.20;53.50;;;;;;5008761;28;20516;-83
2022/09/04 08:34:14;;;;;;;4.40;4.00;;;33.50;53.50;;;;;;5008516;28;20477;-83
2022/09/04 08:37:01;;;;;;;4.27;3.87;;;34.30;51.70;;;;;;5015528;28;20489;-83
2022/09/04 08:39:43;;;;;;;3.90;3.60;;;34.30;51.10;;;;;;5024793;28;20478;-83
2022/09/04 08:42:15;;;;;;;4.23;3.50;;;33.50;52.20;;;;;;5009994;28;20743;-83
2022/09/04 08:45:03;;;;;;;3.80;3.50;;;33.50;51.80;;;;;;5012274;28;21218;-84
2022/09/04 08:48:08;;;;;;;4.80;3.93;;;33.00;53.10;;;;;;5006674;28;21089;-83
2022/09/04 08:51:06;;;;;;;4.57;4.10;;;32.90;53.20;;;;;;4973782;28;20454;-83
2022/09/04 08:54:11;;;;;;;3.60;3.30;;;32.20;54.30;;;;;;5008895;28;20474;-82
2022/09/04 08:57:05;;;;;;;3.47;3.10;;;32.30;54.60;;;;;;5001389;28;20470;-83
2022/09/04 08:59:45;;;;;;;3.57;3.30;;;32.60;53.50;;;;;;5008116;28;20466;-83
2022/09/04 09:02:48;;;;;;;4.90;3.47;;;32.20;54.40;;;;;;5009677;28;20496;-83
2022/09/04 09:05:44;;;;;;;3.73;3.43;;;32.10;54.60;;;;;;5005667;28;20497;-84
2022/09/04 09:09:01;;;;;;;3.30;3.00;;;32.50;54.00;;;;;;5008638;28;20521;-84
2022/09/04 09:12:01;;;;;;;3.63;3.33;;;32.10;54.60;;;;;;5014574;28;20454;-83
2022/09/04 09:14:59;;;;;;;4.20;3.80;;;31.80;55.50;;;;;;5015042;28;20470;-83
2022/09/04 09:17:47;;;;;;;3.40;3.10;;;31.80;55.70;;;;;;5017709;28;20486;-83
2022/09/04 09:20:56;;;;;;;3.00;2.80;;;32.10;54.70;;;;;;5024864;28;20468;-83
2022/09/04 09:23:54;;;;;;;3.47;3.20;;;32.50;54.20;;;;;;5017562;28;20473;-82
2022/09/04 09:26:28;;;;;;;3.50;3.30;;;33.10;53.00;;;;;;5027275;28;20480;-82
2022/09/04 09:29:44;;;;;;;4.17;3.77;;;33.40;52.00;;;;;;5026004;28;20498;-81
2022/09/04 09:32:23;;;;;;;3.50;3.20;;;33.30;52.20;;;;;;4981617;28;20455;-83
2022/09/04 09:35:21;;;;;;;2.83;2.63;;;32.90;52.70;;;;;;5037065;28;20533;-83
2022/09/04 09:37:58;;;;;;;3.50;3.20;;;33.10;52.70;;;;;;5029609;28;20473;-79
2022/09/04 09:40:59;;;;;;;3.30;3.00;;;33.40;52.20;;;;;;5042888;28;20518;-83
2022/09/04 09:43:43;;;;;;;3.00;2.80;;;33.80;51.10;;;;;;5019921;28;20462;-83
2022/09/04 09:46:13;;;;;;;3.10;2.90;;;33.20;51.40;;;;;;5016476;28;20458;-81
2022/09/04 09:48:52;;;;;;;4.60;2.30;;;32.80;52.10;;;;;;5024156;28;20454;-84
2022/09/04 09:51:32;;;;;;;2.93;2.73;;;32.60;52.90;;;;;;5031127;28;20446;-84
2022/09/04 09:54:24;;;;;;;3.17;2.87;;;32.90;52.30;;;;;;5030323;28;20512;-83
2022/09/04 09:57:17;;;;;;;3.00;2.77;;;33.10;52.00;;;;;;5015623;28;20935;-84
2022/09/04 10:00:11;;;;;;;2.83;2.63;;;33.00;52.10;;;;;;5027024;28;20507;-83
2022/09/04 10:02:52;;;;;;;2.60;2.40;;;32.80;52.20;;;;;;5020409;28;20481;-82
2022/09/04 10:05:44;;;;;;;2.43;2.33;;;32.40;52.80;;;;;;5015825;28;20522;-83
2022/09/04 10:08:35;;;;;;;2.40;2.20;;;32.10;53.40;;;;;;5015333;28;20478;-84
2022/09/04 10:11:31;;;;;;;2.80;2.30;;;31.90;53.80;;;;;;5013278;28;20553;-81
2022/09/04 10:14:33;;;;;;;2.50;2.30;;;32.50;53.10;;;;;;5014038;28;20867;-83
2022/09/04 10:17:12;;;;;;;3.13;2.77;;;33.10;52.10;;;;;;5012141;28;20819;-83
2022/09/04 10:20:05;;;;;;;3.30;2.80;;;33.00;52.30;;;;;;5014800;28;20571;-82
2022/09/04 10:22:50;;;;;;;4.10;3.37;;;32.90;52.40;;;;;;5012379;28;21079;-84
2022/09/04 10:25:54;;;;;;;2.90;2.60;;;32.60;52.90;;;;;;5034555;28;20457;-83
2022/09/04 10:28:44;;;;;;;4.10;2.77;;;32.90;52.70;;;;;;5014181;28;20466;-83
2022/09/04 10:31:47;;;;;;;3.50;2.77;;;33.10;52.00;;;;;;5014952;28;20446;-82
2022/09/04 10:34:41;;;;;;;2.90;2.37;;;32.60;52.80;;;;;;5016934;28;20461;-82
2022/09/04 10:37:11;;;;;;;2.87;2.67;;;32.40;53.40;;;;;;5012161;28;20545;-84
2022/09/04 10:40:36;;;;;;;3.20;3.00;;;32.30;53.60;;;;;;5013447;28;20450;-82
2022/09/04 10:43:14;;;;;;;3.33;2.67;;;32.50;53.10;;;;;;5013430;28;20466;-83
2022/09/04 10:46:07;;;;;;;2.43;2.23;;;32.70;53.10;;;;;;5015138;28;20518;-83
2022/09/04 10:48:57;;;;;;;3.10;2.43;;;32.40;52.80;;;;;;5010313;28;21014;-81
2022/09/04 10:51:39;;;;;;;2.90;2.70;;;32.10;53.60;;;;;;5014089;28;20460;-82
2022/09/04 10:54:43;;;;;;;3.23;2.77;;;31.90;53.80;;;;;;5013446;28;20455;-82
2022/09/04 10:57:27;;;;;;;2.80;2.60;;;32.00;54.40;;;;;;5013220;28;21156;-82
2022/09/04 11:00:08;;;;;;;2.90;2.70;;;31.80;54.00;;;;;;5012064;28;20584;-84
2022/09/04 11:02:55;;;;;;;2.70;2.50;;;31.80;54.00;;;;;;5011220;28;20481;-84
2022/09/04 11:06:01;;;;;;;3.40;3.10;;;31.60;54.40;;;;;;5009666;28;20817;-82
2022/09/04 11:09:07;;;;;;;2.73;2.53;;;31.00;55.40;;;;;;5010890;28;20476;-83
2022/09/04 11:11:39;;;;;;;3.40;2.90;;;31.50;55.00;;;;;;5012632;28;20450;-82
2022/09/04 11:14:10;;;;;;;2.87;2.67;;;31.60;54.50;;;;;;5014704;28;20456;-82
2022/09/04 11:17:10;;;;;;;3.00;2.77;;;31.40;55.50;;;;;;5014703;28;20600;-82
2022/09/04 11:19:53;;;;;;;4.03;2.33;;;32.30;53.90;;;;;;5012861;28;20969;-83
2022/09/04 11:22:41;;;;;;;3.00;2.63;;;33.50;51.30;;;;;;5012365;28;20474;-83
2022/09/04 11:25:18;;;;;;;2.40;2.30;;;33.60;50.00;;;;;;5013906;28;20476;-82
2022/09/04 11:28:54;;;;;;;2.37;1.80;;;33.10;51.00;;;;;;5032232;28;20470;-83
2022/09/04 11:31:31;;;;;;;2.23;1.90;;;32.00;52.90;;;;;;4988148;28;20933;-83
2022/09/04 11:34:15;;;;;;;3.50;2.20;;;33.00;50.60;;;;;;5006618;28;20489;-81
2022/09/04 11:36:54;;;;;;;2.53;2.33;;;33.00;50.60;;;;;;5006448;28;20445;-81
2022/09/04 11:39:51;;;;;;;2.77;2.40;;;33.40;50.00;;;;;;5012839;28;20529;-82
2022/09/04 11:42:40;;;;;;;2.77;2.40;;;33.20;50.10;;;;;;5013118;28;20470;-84
2022/09/04 11:45:53;;;;;;;2.43;2.23;;;33.20;50.50;;;;;;5006251;28;20446;-83
2022/09/04 11:48:28;;;;;;;2.70;2.50;;;33.50;49.40;;;;;;4983482;28;20972;-81
2022/09/04 11:51:20;;;;;;;2.20;2.10;;;33.00;50.40;;;;;;5016149;28;20464;-83
2022/09/04 11:54:13;;;;;;;2.10;2.00;;;32.50;51.50;;;;;;5012803;28;20438;-84
2022/09/04 11:56:52;;;;;;;2.57;2.37;;;32.70;51.00;;;;;;5009290;28;20450;-84
2022/09/04 11:59:37;;;;;;;2.60;2.20;;;32.70;50.70;;;;;;5009540;28;20494;-83
2022/09/04 12:02:23;;;;;;;2.50;2.30;;;32.30;51.00;;;;;;5011630;28;20947;-84
2022/09/04 12:05:09;;;;;;;2.07;1.97;;;31.60;52.40;;;;;;5010642;28;21014;-84
2022/09/04 12:07:55;;;;;;;2.73;2.60;;;30.90;53.90;;;;;;5010191;28;20501;-83
2022/09/04 12:10:25;;;;;;;3.50;2.57;;;31.40;53.60;;;;;;5009891;28;21004;-79
2022/09/04 12:13:38;;;;;;;2.70;2.50;;;31.40;53.00;;;;;;5012476;28;20447;-83
2022/09/04 12:16:25;;;;;;;2.50;2.10;;;31.00;53.60;;;;;;5002112;28;20462;-83
2022/09/04 12:19:30;;;;;;;2.80;2.00;;;30.90;53.60;;;;;;5012492;28;20613;-81
2022/09/04 12:22:24;;;;;;;3.40;3.10;;;30.40;54.60;;;;;;5012512;28;20502;-84
2022/09/04 12:25:04;;;;;;;1.90;1.80;;;29.90;55.80;;;;;;5011326;28;20458;-84
2022/09/04 12:27:46;;;;;;;2.53;2.03;;;29.70;56.00;;;;;;5008572;28;20567;-82
2022/09/04 12:30:20;;;;;;;2.43;2.00;;;29.30;56.50;;;;;;5013576;28;20430;-82
2022/09/04 12:33:02;;;;;;;2.53;1.90;;;29.10;56.90;;;;;;5031958;28;20805;-81
2022/09/04 12:35:42;;;;;;;3.07;2.10;;;29.00;57.30;;;;;;5028605;28;20446;-82
2022/09/04 12:38:18;;;;;;;2.30;2.10;;;29.00;57.40;;;;;;5041906;28;20469;-84
2022/09/04 12:40:52;;;;;;;2.47;1.70;;;28.90;57.30;;;;;;5020193;28;20430;-85
2022/09/04 12:43:45;;;;;;;2.07;1.93;;;28.80;57.40;;;;;;5029738;28;20570;-83
2022/09/04 12:46:40;;;;;;;2.10;2.00;;;28.60;58.10;;;;;;5010534;28;20446;-81
2022/09/04 12:49:41;;;;;;;2.00;1.80;;;28.50;58.30;;;;;;5012936;28;20505;-83
2022/09/04 12:52:26;;;;;;;1.90;1.80;;;28.70;58.00;;;;;;5012994;28;20469;-85
2022/09/04 12:55:11;;;;;;;2.83;1.90;;;28.50;58.20;;;;;;5008293;28;20457;-82
2022/09/04 12:58:20;;;;;;;6.40;2.97;;;28.40;58.60;;;;;;5007736;28;20465;-83
2022/09/04 13:01:07;;;;;;;2.40;2.20;;;28.60;58.80;;;;;;4984472;28;20482;-85
2022/09/04 13:03:51;;;;;;;2.30;2.10;;;28.80;58.70;;;;;;5007677;28;20538;-83
2022/09/04 13:06:41;;;;;;;2.50;2.30;;;28.60;58.50;;;;;;5006304;28;20446;-82
2022/09/04 13:09:16;;;;;;;2.67;2.33;;;28.40;59.50;;;;;;5010969;28;20578;-83
2022/09/04 13:12:04;;;;;;;2.47;2.27;;;28.40;59.60;;;;;;5012423;28;20456;-83
2022/09/04 13:14:43;;;;;;;2.90;2.70;;;28.70;59.20;;;;;;5011879;28;20450;-84
2022/09/04 13:17:28;;;;;;;2.50;2.30;;;28.80;58.70;;;;;;5007036;28;20458;-83
2022/09/04 13:20:24;;;;;;;2.20;2.00;;;28.60;58.60;;;;;;5009834;28;20485;-83
2022/09/04 13:23:18;;;;;;;4.13;2.47;;;28.60;59.00;;;;;;5006564;28;20478;-83
2022/09/04 13:26:23;;;;;;;2.30;2.20;;;28.60;59.30;;;;;;5009280;28;20466;-83
2022/09/04 13:28:49;;;;;;;1.70;1.60;;;29.20;58.30;;;;;;5009189;28;20461;-85
2022/09/04 13:31:22;;;;;;;2.10;1.77;;;29.30;57.10;;;;;;5009257;28;20449;-84
2022/09/04 13:34:16;;;;;;;2.10;1.90;;;29.10;57.70;;;;;;5009059;28;20997;-84
2022/09/04 13:37:02;;;;;;;2.40;2.30;;;29.10;58.10;;;;;;5008783;28;20486;-84
2022/09/04 13:39:52;;;;;;;2.63;2.43;;;29.10;57.70;;;;;;5010963;28;20468;-84
2022/09/04 13:42:27;;;;;;;1.90;1.80;;;29.10;57.70;;;;;;5009596;28;20478;-82
2022/09/04 13:45:27;;;;;;;2.60;2.23;;;29.20;56.70;;;;;;5024260;28;20469;-84
2022/09/04 13:48:03;;;;;;;2.23;2.03;;;29.00;57.30;;;;;;5011774;28;20469;-84
2022/09/04 13:50:38;;;;;;;2.23;2.13;;;29.00;57.70;;;;;;5025839;28;20527;-85
2022/09/04 13:53:18;;;;;;;1.93;1.80;;;28.80;58.30;;;;;;5007356;28;20457;-81
2022/09/04 13:55:53;;;;;;;2.50;2.30;;;29.00;57.90;;;;;;5006028;28;20438;-83
2022/09/04 13:58:28;;;;;;;2.40;2.20;;;29.00;57.70;;;;;;5009373;28;20462;-83
2022/09/04 14:00:59;;;;;;;3.97;2.13;;;29.10;57.90;;;;;;5010753;28;20510;-84
2022/09/04 14:03:40;;;;;;;2.63;2.43;;;29.20;57.60;;;;;;5009809;28;20553;-83
2022/09/04 14:06:11;;;;;;;2.53;2.13;;;28.90;57.90;;;;;;5018013;28;20648;-83
2022/09/04 14:08:38;;;;;;;2.80;2.20;;;28.90;58.10;;;;;;5007084;28;20470;-84
2022/09/04 14:11:39;;;;;;;2.40;2.20;;;29.00;57.80;;;;;;5008580;28;20450;-84
2022/09/04 14:14:24;;;;;;;5.17;2.53;;;28.80;58.00;;;;;;5017916;28;20438;-85
2022/09/04 14:16:54;;;;;;;2.90;2.00;;;28.80;58.30;;;;;;5028915;28;20431;-81
2022/09/04 14:19:20;;;;;;;2.03;1.93;;;29.00;57.80;;;;;;5028681;28;20494;-82
2022/09/04 14:21:50;;;;;;;2.27;2.00;;;29.00;57.70;;;;;;5028380;28;20477;-84
2022/09/04 14:24:41;;;;;;;3.53;2.03;;;28.90;57.60;;;;;;5027877;28;20458;-83
2022/09/04 14:27:31;;;;;;;2.43;2.30;;;28.80;57.90;;;;;;5014916;28;20454;-82
2022/09/04 14:30:08;;;;;;;3.03;2.83;;;29.00;57.70;;;;;;5012928;28;20497;-83
2022/09/04 14:32:59;;;;;;;4.63;4.33;;;28.90;57.90;;;;;;5012561;28;20446;-81
2022/09/04 14:35:49;;;;;;;2.83;2.47;;;29.10;57.50;;;;;;5011788;28;20493;-80
2022/09/04 14:38:31;;;;;;;2.67;2.47;;;29.50;56.50;;;;;;5015990;28;20513;-80